createdAt,value
2023-03-01T00:01:40.070Z,103274.00
2023-03-01T00:04:08.672Z,103269.97
2023-03-01T00:06:38.672Z,103266.19
2023-03-01T00:09:08.621Z,103278.88
2023-03-01T00:11:37.261Z,103269.13
2023-03-01T00:14:07.703Z,103272.41
2023-03-01T00:16:40.013Z,103267.63
2023-03-01T00:19:09.900Z,103268.91
2023-03-01T00:21:37.996Z,103263.88
2023-03-01T00:24:09.014Z,103257.91
2023-03-01T00:26:38.573Z,103266.09
2023-03-01T00:29:06.967Z,103267.34
2023-03-01T00:31:36.454Z,103265.03
2023-03-01T00:34:07.388Z,103266.94
2023-03-01T00:36:38.395Z,103268.41
2023-03-01T00:39:12.594Z,103259.72
2023-03-01T00:41:41.287Z,103257.38
2023-03-01T00:44:10.429Z,103259.72
2023-03-01T00:46:39.861Z,103268.22
2023-03-01T00:49:08.252Z,103264.41
2023-03-01T00:51:36.470Z,103268.91
2023-03-01T00:54:06.544Z,103267.16
2023-03-01T00:56:36.422Z,103267.47
2023-03-01T00:59:05.508Z,103264.03
2023-03-01T01:01:34.593Z,103262.59
2023-03-01T01:04:05.362Z,103263.91
2023-03-01T01:06:35.263Z,103262.44
2023-03-01T01:09:04.944Z,103258.69
2023-03-01T01:11:36.610Z,103260.25
2023-03-01T01:14:06.016Z,103249.25
2023-03-01T01:16:34.966Z,103246.31
2023-03-01T01:19:06.072Z,103249.84
2023-03-01T01:21:35.161Z,103241.63
2023-03-01T01:24:08.050Z,103247.50
2023-03-01T01:26:39.237Z,103244.03
2023-03-01T01:29:11.924Z,103241.72
2023-03-01T01:31:43.979Z,103239.72
2023-03-01T01:34:16.926Z,103238.50
2023-03-01T01:36:46.005Z,103241.06
2023-03-01T01:39:14.691Z,103224.88
2023-03-01T01:41:45.237Z,103218.56
2023-03-01T01:44:18.544Z,103216.38
2023-03-01T01:46:51.523Z,103219.56
2023-03-01T01:49:27.538Z,103213.38
2023-03-01T01:52:03.027Z,103219.69
2023-03-01T01:54:39.073Z,103220.22
2023-03-01T01:57:13.207Z,103213.16
2023-03-01T01:59:45.332Z,103208.34
2023-03-01T02:02:15.341Z,103203.94
2023-03-01T02:04:46.257Z,103208.06
2023-03-01T02:07:18.946Z,103207.19
2023-03-01T02:09:51.142Z,103204.06
2023-03-01T02:12:25.490Z,103204.16
2023-03-01T02:14:54.129Z,103201.38
2023-03-01T02:17:24.700Z,103192.84
2023-03-01T02:20:08.908Z,103191.84
2023-03-01T02:22:42.933Z,103200.00
2023-03-01T02:25:20.041Z,103194.13
2023-03-01T02:28:00.591Z,103189.69
2023-03-01T02:30:32.115Z,103184.66
2023-03-01T02:33:05.828Z,103182.50
2023-03-01T02:35:41.352Z,103175.94
2023-03-01T02:38:11.775Z,103167.66
2023-03-01T02:40:42.895Z,103164.06
2023-03-01T02:43:14.923Z,103162.94
2023-03-01T02:45:52.510Z,103160.13
2023-03-01T02:48:22.104Z,103164.53
2023-03-01T02:51:11.096Z,103167.97
2023-03-01T02:53:48.373Z,103165.25
2023-03-01T02:56:18.621Z,103158.41
2023-03-01T02:58:52.653Z,103164.38
2023-03-01T03:01:23.843Z,103147.28
2023-03-01T03:03:52.509Z,103141.38
2023-03-01T03:06:20.929Z,103146.97
2023-03-01T03:08:50.301Z,103139.88
2023-03-01T03:11:19.715Z,103145.59
2023-03-01T03:13:49.552Z,103141.06
2023-03-01T03:16:22.664Z,103140.44
2023-03-01T03:18:53.772Z,103141.16
2023-03-01T03:21:22.186Z,103135.91
2023-03-01T03:23:50.438Z,103141.78
2023-03-01T03:26:24.517Z,103135.25
2023-03-01T03:28:58.236Z,103137.81
2023-03-01T03:31:27.418Z,103145.38
2023-03-01T03:34:00.628Z,103141.00
2023-03-01T03:36:31.157Z,103150.16
2023-03-01T03:39:01.162Z,103147.03
2023-03-01T03:41:31.992Z,103152.28
2023-03-01T03:44:02.635Z,103153.31
2023-03-01T03:46:32.913Z,103149.66
2023-03-01T03:49:06.262Z,103155.94
2023-03-01T03:51:37.342Z,103149.88
2023-03-01T03:54:09.149Z,103144.16
2023-03-01T03:56:38.801Z,103136.31
2023-03-01T03:59:08.149Z,103144.16
2023-03-01T04:01:36.532Z,103138.28
2023-03-01T04:04:09.022Z,103144.47
2023-03-01T04:06:37.348Z,103151.94
2023-03-01T04:09:06.140Z,103155.03
2023-03-01T04:11:36.110Z,103163.88
2023-03-01T04:14:05.521Z,103161.22
2023-03-01T04:16:34.939Z,103154.84
2023-03-01T04:19:04.401Z,103163.22
2023-03-01T04:21:34.526Z,103154.44
2023-03-01T04:24:04.832Z,103157.28
2023-03-01T04:26:33.532Z,103156.94
2023-03-01T04:29:02.509Z,103160.66
2023-03-01T04:31:31.844Z,103144.03
2023-03-01T04:34:01.229Z,103141.53
2023-03-01T04:36:32.228Z,103155.59
2023-03-01T04:39:13.528Z,103149.16
2023-03-01T04:41:44.421Z,103142.28
2023-03-01T04:44:12.624Z,103133.38
2023-03-01T04:46:41.139Z,103147.44
2023-03-01T04:49:09.483Z,103134.81
2023-03-01T04:51:38.882Z,103144.28
2023-03-01T04:54:11.328Z,103130.84
2023-03-01T04:56:39.724Z,103135.81
2023-03-01T04:59:11.029Z,103134.53
2023-03-01T05:01:39.549Z,103130.28
2023-03-01T05:04:08.764Z,103125.84
2023-03-01T05:06:37.471Z,103129.13
2023-03-01T05:09:06.369Z,103114.03
2023-03-01T05:11:37.074Z,103115.09
2023-03-01T05:14:08.191Z,103114.81
2023-03-01T05:16:38.631Z,103107.59
2023-03-01T05:19:12.986Z,103098.34
2023-03-01T05:22:02.265Z,103093.25
2023-03-01T05:24:31.760Z,103092.25
2023-03-01T05:27:02.327Z,103093.75
2023-03-01T05:29:35.927Z,103087.25
2023-03-01T05:32:06.026Z,103086.91
2023-03-01T05:34:37.739Z,103080.41
2023-03-01T05:37:08.609Z,103076.81
2023-03-01T05:39:37.163Z,103085.91
2023-03-01T05:42:09.781Z,103082.06
2023-03-01T05:44:38.558Z,103074.13
2023-03-01T05:47:07.690Z,103068.88
2023-03-01T05:49:38.315Z,103061.81
2023-03-01T05:52:09.928Z,103060.47
2023-03-01T05:54:39.583Z,103060.47
2023-03-01T05:57:09.389Z,103059.94
2023-03-01T05:59:38.937Z,103067.00
2023-03-01T06:02:07.762Z,103058.97
2023-03-01T06:04:36.530Z,103073.84
2023-03-01T06:07:06.634Z,103068.44
2023-03-01T06:09:35.252Z,103065.75
2023-03-01T06:12:04.844Z,103075.28
2023-03-01T06:14:34.952Z,103075.06
2023-03-01T06:17:05.314Z,103075.78
2023-03-01T06:19:35.363Z,103073.50
2023-03-01T06:22:06.140Z,103076.69
2023-03-01T06:24:34.712Z,103077.50
2023-03-01T06:27:05.058Z,103081.97
2023-03-01T06:29:36.237Z,103082.69
2023-03-01T06:32:09.672Z,103079.88
2023-03-01T06:34:38.721Z,103088.78
2023-03-01T06:37:09.025Z,103090.91
2023-03-01T06:39:38.039Z,103094.34
2023-03-01T06:42:07.490Z,103100.75
2023-03-01T06:44:37.851Z,103103.56
2023-03-01T06:47:09.444Z,103105.22
2023-03-01T06:49:37.779Z,103096.81
2023-03-01T06:52:07.682Z,103100.09
2023-03-01T06:54:36.668Z,103103.56
2023-03-01T06:57:06.155Z,103109.06
2023-03-01T06:59:34.748Z,103106.94
2023-03-01T07:02:06.878Z,103104.88
2023-03-01T07:04:36.418Z,103106.22
2023-03-01T07:07:07.012Z,103109.88
2023-03-01T07:09:35.992Z,103114.06
2023-03-01T07:12:06.779Z,103112.09
2023-03-01T07:14:35.904Z,103107.41
2023-03-01T07:17:06.318Z,103107.25
2023-03-01T07:19:35.290Z,103103.63
2023-03-01T07:22:05.944Z,103109.59
2023-03-01T07:24:34.887Z,103105.03
2023-03-01T07:27:04.343Z,103100.03
2023-03-01T07:29:32.856Z,103103.69
2023-03-01T07:32:01.511Z,103097.84
2023-03-01T07:34:31.827Z,103100.19
2023-03-01T07:37:00.956Z,103100.66
2023-03-01T07:39:29.810Z,103105.13
2023-03-01T07:41:58.618Z,103099.63
2023-03-01T07:44:27.308Z,103102.72
2023-03-01T07:46:59.176Z,103107.56
2023-03-01T07:49:28.649Z,103106.63
2023-03-01T07:51:59.718Z,103103.78
2023-03-01T07:54:28.267Z,103104.75
2023-03-01T07:56:56.766Z,103099.09
2023-03-01T07:59:30.035Z,103100.19
2023-03-01T08:01:58.727Z,103106.13
2023-03-01T08:04:27.832Z,103112.59
2023-03-01T08:06:58.873Z,103102.47
2023-03-01T08:09:27.886Z,103105.41
2023-03-01T08:11:58.439Z,103098.75
2023-03-01T08:14:27.284Z,103093.81
2023-03-01T08:16:56.512Z,103094.25
2023-03-01T08:19:24.953Z,103100.09
2023-03-01T08:21:53.690Z,103096.78
2023-03-01T08:24:24.950Z,103091.19
2023-03-01T08:26:53.897Z,103102.41
2023-03-01T08:29:22.797Z,103101.19
2023-03-01T08:31:51.527Z,103098.09
2023-03-01T08:34:20.873Z,103092.44
2023-03-01T08:36:49.372Z,103097.34
2023-03-01T08:39:20.220Z,103097.88
2023-03-01T08:41:50.542Z,103088.31
2023-03-01T08:44:20.229Z,103092.50
2023-03-01T08:46:51.093Z,103090.31
2023-03-01T08:49:21.497Z,103085.59
2023-03-01T08:51:50.567Z,103082.56
2023-03-01T08:54:21.151Z,103086.66
2023-03-01T08:56:51.549Z,103085.38
2023-03-01T08:59:20.720Z,103087.81
2023-03-01T09:01:49.811Z,103092.97
2023-03-01T09:04:18.658Z,103082.75
2023-03-01T09:06:47.313Z,103078.09
2023-03-01T09:09:17.957Z,103079.97
2023-03-01T09:11:51.182Z,103076.03
2023-03-01T09:14:20.750Z,103078.72
2023-03-01T09:16:49.406Z,103076.44
2023-03-01T09:19:19.034Z,103066.41
2023-03-01T09:21:53.755Z,103071.56
2023-03-01T09:24:24.018Z,103069.44
2023-03-01T09:26:55.351Z,103066.56
2023-03-01T09:29:25.714Z,103066.41
2023-03-01T09:31:56.554Z,103064.50
2023-03-01T09:34:25.202Z,103059.84
2023-03-01T09:36:53.863Z,103062.38
2023-03-01T09:39:22.771Z,103054.03
2023-03-01T09:42:00.770Z,103057.56
2023-03-01T09:44:41.044Z,103059.03
2023-03-01T09:47:22.430Z,103063.19
2023-03-01T09:49:59.810Z,103064.75
2023-03-01T09:52:37.214Z,103068.34
2023-03-01T09:55:13.902Z,103071.44
2023-03-01T09:57:51.756Z,103069.91
2023-03-01T10:00:39.731Z,103064.31
2023-03-01T10:03:19.290Z,103065.06
2023-03-01T10:05:59.732Z,103061.59
2023-03-01T10:08:35.220Z,103070.41
2023-03-01T10:11:08.040Z,103067.59
2023-03-01T10:13:50.916Z,103067.13
2023-03-01T10:16:29.491Z,103066.75
2023-03-01T10:19:04.294Z,103065.88
2023-03-01T10:21:42.213Z,103059.50
2023-03-01T10:24:16.165Z,103052.69
2023-03-01T10:26:57.270Z,103057.47
2023-03-01T10:29:33.242Z,103059.91
2023-03-01T10:32:07.732Z,103056.59
2023-03-01T10:34:38.864Z,103057.19
2023-03-01T10:37:17.263Z,103059.03
2023-03-01T10:40:00.563Z,103054.00
2023-03-01T10:42:32.856Z,103055.56
2023-03-01T10:45:18.690Z,103037.84
2023-03-01T10:47:49.559Z,103034.25
2023-03-01T10:50:23.721Z,103017.84
2023-03-01T10:53:02.022Z,103024.34
2023-03-01T10:55:37.874Z,103030.72
2023-03-01T10:58:18.309Z,103034.63
2023-03-01T11:00:54.030Z,103027.16
2023-03-01T11:03:30.221Z,103027.06
2023-03-01T11:06:07.404Z,103031.16
2023-03-01T11:08:39.643Z,103026.41
2023-03-01T11:11:19.146Z,103032.69
2023-03-01T11:13:57.592Z,103034.22
2023-03-01T11:16:35.645Z,103031.03
2023-03-01T11:19:19.449Z,103031.50
2023-03-01T11:22:14.040Z,103027.13
2023-03-01T11:24:49.368Z,103030.72
2023-03-01T11:27:24.978Z,103028.69
2023-03-01T11:29:57.817Z,103027.41
2023-03-01T11:32:30.721Z,103033.38
2023-03-01T11:35:06.058Z,103034.25
2023-03-01T11:37:43.706Z,103026.00
2023-03-01T11:40:19.798Z,103020.56
2023-03-01T11:42:57.967Z,103015.13
2023-03-01T11:45:31.055Z,103018.16
2023-03-01T11:48:16.467Z,103010.00
2023-03-01T11:50:49.353Z,103019.56
2023-03-01T11:53:37.682Z,103008.84
2023-03-01T11:56:16.148Z,103013.31
2023-03-01T11:59:10.331Z,103003.88
2023-03-01T12:01:47.200Z,103004.97
2023-03-01T12:04:58.937Z,102996.06
2023-03-01T12:07:40.460Z,102995.28
2023-03-01T12:10:25.107Z,102993.13
2023-03-01T12:13:15.932Z,102985.19
2023-03-01T12:16:10.780Z,102978.91
2023-03-01T12:18:57.437Z,102974.50
2023-03-01T12:21:37.779Z,102968.72
2023-03-01T12:25:03.517Z,102959.69
2023-03-01T12:27:58.382Z,102956.09
2023-03-01T12:30:40.419Z,102951.56
2023-03-01T12:33:22.497Z,102943.25
2023-03-01T12:36:05.588Z,102948.66
2023-03-01T12:38:38.651Z,102941.22
2023-03-01T12:41:23.839Z,102939.94
2023-03-01T12:44:04.625Z,102934.63
2023-03-01T12:46:54.410Z,102934.41
2023-03-01T12:49:28.896Z,102924.69
2023-03-01T12:52:05.722Z,102920.84
2023-03-01T12:54:37.644Z,102919.09
2023-03-01T12:57:15.502Z,102918.75
2023-03-01T12:59:53.673Z,102907.88
2023-03-01T13:02:29.317Z,102907.13
2023-03-01T13:05:10.198Z,102904.78
2023-03-01T13:07:43.901Z,102900.66
2023-03-01T13:10:27.433Z,102902.91
2023-03-01T13:13:13.817Z,102900.59
2023-03-01T13:15:44.076Z,102904.06
2023-03-01T13:18:31.814Z,102895.13
2023-03-01T13:21:02.862Z,102898.84
2023-03-01T13:23:36.181Z,102898.38
2023-03-01T13:26:14.777Z,102898.38
2023-03-01T13:28:57.082Z,102891.78
2023-03-01T13:32:06.111Z,102881.06
2023-03-01T13:34:52.532Z,102878.44
2023-03-01T13:37:30.755Z,102876.06
2023-03-01T13:40:05.566Z,102874.03
2023-03-01T13:42:56.214Z,102875.66
2023-03-01T13:45:41.594Z,102871.66
2023-03-01T13:48:20.906Z,102870.13
2023-03-01T13:50:52.977Z,102864.84
2023-03-01T13:53:25.172Z,102863.06
2023-03-01T13:55:59.636Z,102863.59
2023-03-01T13:58:31.929Z,102861.25
2023-03-01T14:01:05.925Z,102851.06
2023-03-01T14:03:36.783Z,102858.00
2023-03-01T14:06:15.699Z,102854.69
2023-03-01T14:08:46.412Z,102854.84
2023-03-01T14:12:03.874Z,102851.34
2023-03-01T14:14:42.520Z,102852.06
2023-03-01T14:17:40.735Z,102853.91
2023-03-01T14:20:16.825Z,102856.97
2023-03-01T14:22:46.977Z,102850.13
2023-03-01T14:25:32.960Z,102843.91
2023-03-01T14:28:06.344Z,102836.31
2023-03-01T14:30:38.742Z,102831.72
2023-03-01T14:33:21.570Z,102830.78
2023-03-01T14:36:01.510Z,102825.72
2023-03-01T14:38:35.805Z,102825.44
2023-03-01T14:41:09.368Z,102824.06
2023-03-01T14:43:39.885Z,102814.81
2023-03-01T14:46:09.070Z,102813.75
2023-03-01T14:48:38.712Z,102808.72
2023-03-01T14:51:08.670Z,102803.78
2023-03-01T14:53:50.060Z,102797.31
2023-03-01T14:56:20.401Z,102790.00
2023-03-01T14:58:53.360Z,102786.66
2023-03-01T15:01:22.173Z,102785.06
2023-03-01T15:03:53.625Z,102791.44
2023-03-01T15:06:24.796Z,102782.53
2023-03-01T15:08:55.951Z,102772.91
2023-03-01T15:11:26.602Z,102776.50
2023-03-01T15:13:56.296Z,102774.91
2023-03-01T15:16:27.015Z,102770.63
2023-03-01T15:18:59.264Z,102768.38
2023-03-01T15:21:32.333Z,102758.00
2023-03-01T15:24:20.436Z,102760.31
2023-03-01T15:26:55.377Z,102764.50
2023-03-01T15:29:31.049Z,102760.19
2023-03-01T15:32:05.456Z,102754.81
2023-03-01T15:34:45.129Z,102759.91
2023-03-01T15:37:41.679Z,102748.38
2023-03-01T15:40:32.317Z,102748.47
2023-03-01T15:43:01.427Z,102751.88
2023-03-01T15:45:32.840Z,102741.94
2023-03-01T15:48:06.444Z,102731.09
2023-03-01T15:50:41.043Z,102726.72
2023-03-01T15:53:15.445Z,102728.03
2023-03-01T15:55:45.096Z,102721.69
2023-03-01T15:58:17.446Z,102723.09
2023-03-01T16:00:59.921Z,102724.59
2023-03-01T16:03:30.307Z,102723.41
2023-03-01T16:06:02.394Z,102728.53
2023-03-01T16:08:31.557Z,102732.03
2023-03-01T16:11:00.521Z,102734.03
2023-03-01T16:13:29.733Z,102731.38
2023-03-01T16:15:59.664Z,102730.91
2023-03-01T16:18:28.310Z,102732.16
2023-03-01T16:20:56.617Z,102742.38
2023-03-01T16:23:28.211Z,102742.75
2023-03-01T16:26:01.622Z,102737.94
2023-03-01T16:28:31.015Z,102747.66
2023-03-01T16:30:59.843Z,102747.22
2023-03-01T16:33:33.937Z,102759.13
2023-03-01T16:36:05.255Z,102753.19
2023-03-01T16:38:35.947Z,102754.06
2023-03-01T16:41:07.114Z,102748.63
2023-03-01T16:43:35.681Z,102748.97
2023-03-01T16:46:06.790Z,102757.66
2023-03-01T16:48:36.101Z,102751.94
2023-03-01T16:51:07.334Z,102751.91
2023-03-01T16:53:39.284Z,102753.75
2023-03-01T16:56:10.529Z,102756.47
2023-03-01T16:58:40.884Z,102758.44
2023-03-01T17:01:11.847Z,102750.38
2023-03-01T17:03:43.904Z,102740.63
2023-03-01T17:06:16.227Z,102737.94
2023-03-01T17:08:47.296Z,102741.41
2023-03-01T17:11:19.432Z,102742.66
2023-03-01T17:13:50.671Z,102750.44
2023-03-01T17:16:21.980Z,102752.91
2023-03-01T17:18:52.965Z,102755.25
2023-03-01T17:21:24.156Z,102757.19
2023-03-01T17:23:59.291Z,102758.41
2023-03-01T17:26:29.351Z,102762.16
2023-03-01T17:28:59.317Z,102760.34
2023-03-01T17:31:27.874Z,102762.16
2023-03-01T17:33:59.342Z,102766.72
2023-03-01T17:36:29.296Z,102758.41
2023-03-01T17:38:59.851Z,102762.72
2023-03-01T17:41:28.969Z,102769.91
2023-03-01T17:43:57.977Z,102776.25
2023-03-01T17:46:27.244Z,102779.22
2023-03-01T17:48:56.503Z,102779.44
2023-03-01T17:51:24.961Z,102784.28
2023-03-01T17:53:53.836Z,102775.38
2023-03-01T17:56:24.268Z,102776.94
2023-03-01T17:58:53.659Z,102776.94
2023-03-01T18:01:24.161Z,102784.22
2023-03-01T18:03:55.021Z,102790.75
2023-03-01T18:06:25.940Z,102786.72
2023-03-01T18:08:55.290Z,102794.25
2023-03-01T18:11:27.534Z,102800.34
2023-03-01T18:13:57.470Z,102810.66
2023-03-01T18:16:32.619Z,102805.44
2023-03-01T18:19:05.186Z,102810.41
2023-03-01T18:21:37.325Z,102823.66
2023-03-01T18:24:09.315Z,102813.13
2023-03-01T18:26:40.427Z,102820.84
2023-03-01T18:29:10.957Z,102820.41
2023-03-01T18:31:40.819Z,102819.19
2023-03-01T18:34:12.539Z,102822.53
2023-03-01T18:36:41.664Z,102820.13
2023-03-01T18:39:15.064Z,102811.88
2023-03-01T18:41:45.131Z,102810.72
2023-03-01T18:44:13.347Z,102816.81
2023-03-01T18:46:42.228Z,102808.22
2023-03-01T18:49:13.018Z,102800.41
2023-03-01T18:51:43.023Z,102809.22
2023-03-01T18:54:12.789Z,102815.63
2023-03-01T18:56:42.074Z,102814.53
2023-03-01T18:59:12.166Z,102810.19
2023-03-01T19:01:41.429Z,102816.34
2023-03-01T19:04:11.175Z,102821.44
2023-03-01T19:06:40.110Z,102824.94
2023-03-01T19:09:12.294Z,102816.78
2023-03-01T19:11:41.664Z,102813.41
2023-03-01T19:14:12.368Z,102824.06
2023-03-01T19:16:41.831Z,102818.00
2023-03-01T19:19:11.022Z,102822.00
2023-03-01T19:21:39.607Z,102828.84
2023-03-01T19:24:09.581Z,102833.69
2023-03-01T19:26:41.957Z,102827.22
2023-03-01T19:33:07.028Z,102818.00
2023-03-01T19:35:36.781Z,102823.34
2023-03-01T19:38:07.032Z,102829.91
2023-03-01T19:40:37.958Z,102826.03
2023-03-01T19:43:07.752Z,102825.59
2023-03-01T19:45:37.232Z,102828.22
2023-03-01T19:48:08.169Z,102819.41
2023-03-01T19:50:38.514Z,102823.09
2023-03-01T19:53:08.553Z,102824.84
2023-03-01T19:55:40.099Z,102823.97
2023-03-01T19:58:10.718Z,102832.63
2023-03-01T20:00:42.321Z,102829.16
2023-03-01T20:03:12.046Z,102834.16
2023-03-01T20:05:43.510Z,102839.13
2023-03-01T20:08:12.805Z,102838.72
2023-03-01T20:10:41.762Z,102835.66
2023-03-01T20:13:10.527Z,102836.00
2023-03-01T20:15:42.935Z,102842.50
2023-03-01T20:18:15.159Z,102836.00
2023-03-01T20:20:44.180Z,102837.00
2023-03-01T20:23:12.874Z,102836.28
2023-03-01T20:25:43.130Z,102840.06
2023-03-01T20:28:12.602Z,102832.78
2023-03-01T20:30:41.867Z,102828.31
2023-03-01T20:33:12.527Z,102838.22
2023-03-01T20:35:44.029Z,102837.25
2023-03-01T20:38:13.078Z,102840.06
2023-03-01T20:40:42.151Z,102839.56
2023-03-01T20:43:11.074Z,102839.84
2023-03-01T20:45:40.074Z,102845.84
2023-03-01T20:48:08.722Z,102844.38
2023-03-01T20:50:41.930Z,102845.34
2023-03-01T20:53:10.382Z,102848.19
2023-03-01T20:55:39.527Z,102851.03
2023-03-01T20:58:08.069Z,102852.13
2023-03-01T21:00:38.036Z,102856.97
2023-03-01T21:03:08.927Z,102856.44
2023-03-01T21:05:41.785Z,102859.03
2023-03-01T21:08:10.802Z,102855.97
2023-03-01T21:10:39.897Z,102850.88
2023-03-01T21:13:10.524Z,102855.69
2023-03-01T21:15:41.100Z,102857.56
2023-03-01T21:18:09.726Z,102856.22
2023-03-01T21:20:43.516Z,102858.53
2023-03-01T21:23:14.635Z,102853.84
2023-03-01T21:25:45.572Z,102852.16
2023-03-01T21:28:13.973Z,102852.59
2023-03-01T21:30:42.419Z,102845.56
2023-03-01T21:33:10.535Z,102848.91
2023-03-01T21:35:41.967Z,102836.63
2023-03-01T21:38:11.443Z,102844.09
2023-03-01T21:40:41.443Z,102842.94
2023-03-01T21:43:10.691Z,102844.25
2023-03-01T21:45:40.177Z,102827.16
2023-03-01T21:48:08.910Z,102828.78
2023-03-01T21:50:37.929Z,102829.88
2023-03-01T21:53:09.503Z,102827.06
2023-03-01T21:55:40.424Z,102829.56
2023-03-01T21:58:09.153Z,102827.16
2023-03-01T22:00:40.363Z,102827.06
2023-03-01T22:03:09.537Z,102831.13
2023-03-01T22:05:38.727Z,102830.53
2023-03-01T22:08:09.846Z,102825.97
2023-03-01T22:10:43.825Z,102836.22
2023-03-01T22:13:12.501Z,102832.53
2023-03-01T22:15:44.054Z,102824.22
2023-03-01T22:18:14.809Z,102827.16
2023-03-01T22:20:43.665Z,102822.41
2023-03-01T22:23:13.801Z,102822.31
2023-03-01T22:25:42.967Z,102824.22
2023-03-01T22:28:11.768Z,102827.06
2023-03-01T22:30:41.356Z,102831.22
2023-03-01T22:33:09.523Z,102834.38
2023-03-01T22:35:42.012Z,102838.34
2023-03-01T22:38:11.193Z,102835.63
2023-03-01T22:40:43.434Z,102838.44
2023-03-01T22:43:12.708Z,102835.63
2023-03-01T22:45:42.474Z,102836.66
2023-03-01T22:48:11.013Z,102836.28
2023-03-01T22:50:43.920Z,102835.91
2023-03-01T22:53:12.765Z,102845.34
2023-03-01T22:55:44.171Z,102835.78
2023-03-01T22:58:12.603Z,102845.44
2023-03-01T23:00:42.922Z,102840.59
2023-03-01T23:03:11.587Z,102842.25
2023-03-01T23:05:40.171Z,102847.38
2023-03-01T23:08:09.084Z,102836.41
2023-03-01T23:10:43.272Z,102847.19
2023-03-01T23:13:11.553Z,102837.50
2023-03-01T23:15:44.850Z,102838.59
2023-03-01T23:18:13.228Z,102837.03
2023-03-01T23:20:41.810Z,102835.81
2023-03-01T23:23:10.158Z,102839.09
2023-03-01T23:25:39.973Z,102841.31
2023-03-01T23:28:10.384Z,102841.03
2023-03-01T23:30:39.473Z,102834.88
2023-03-01T23:33:08.377Z,102831.06
2023-03-01T23:35:40.428Z,102837.84
2023-03-01T23:38:09.064Z,102840.16
2023-03-01T23:40:39.992Z,102833.38
2023-03-01T23:43:09.767Z,102833.22
2023-03-01T23:45:43.358Z,102832.16
2023-03-01T23:48:13.054Z,102835.13
2023-03-01T23:50:43.875Z,102828.44
2023-03-01T23:53:14.662Z,102825.94
2023-03-01T23:55:46.969Z,102821.09
2023-03-01T23:58:17.452Z,102820.44
